createdAt,value
2022-09-04T00:02:38.708Z,101183.91
2022-09-04T00:07:13.368Z,101186.19
2022-09-04T00:11:34.536Z,101174.13
2022-09-04T00:15:44.377Z,101186.03
2022-09-04T00:20:32.443Z,101175.22
2022-09-04T00:25:08.270Z,101180.50
2022-09-04T00:29:45.449Z,101172.38
2022-09-04T00:34:32.678Z,101167.41
2022-09-04T00:38:40.705Z,101170.69
2022-09-04T00:43:02.372Z,101184.28
2022-09-04T00:47:16.438Z,101182.56
2022-09-04T00:51:43.633Z,101182.16
2022-09-04T00:56:27.091Z,101184.09
2022-09-04T01:00:30.950Z,101186.72
2022-09-04T01:04:58.943Z,101198.63
2022-09-04T01:09:31.446Z,101187.53
2022-09-04T01:14:08.907Z,101200.88
2022-09-04T01:18:44.313Z,101200.09
2022-09-04T01:22:58.322Z,101191.66
2022-09-04T01:27:10.107Z,101194.16
2022-09-04T01:31:24.728Z,101205.69
2022-09-04T01:35:32.563Z,101200.56
2022-09-04T01:39:38.260Z,101193.66
2022-09-04T01:43:40.998Z,101204.31
2022-09-04T01:47:50.467Z,101208.69
2022-09-04T01:52:13.680Z,101206.03
2022-09-04T01:56:25.242Z,101213.88
2022-09-04T02:00:30.975Z,101209.69
2022-09-04T02:04:47.973Z,101206.09
2022-09-04T02:09:27.918Z,101200.22
2022-09-04T02:13:45.171Z,101191.59
2022-09-04T02:17:56.226Z,101190.97
2022-09-04T02:22:26.928Z,101190.00
2022-09-04T02:26:58.536Z,101196.22
2022-09-04T02:31:30.604Z,101192.91
2022-09-04T02:35:52.693Z,101205.53
2022-09-04T02:40:13.683Z,101194.06
2022-09-04T02:44:15.971Z,101191.09
2022-09-04T02:48:29.663Z,101192.72
2022-09-04T02:52:41.298Z,101189.28
2022-09-04T02:57:08.036Z,101181.44
2022-09-04T03:01:22.623Z,101186.75
2022-09-04T03:05:30.689Z,101195.28
2022-09-04T03:09:36.692Z,101199.16
2022-09-04T03:13:38.778Z,101196.63
2022-09-04T03:17:51.626Z,101197.72
2022-09-04T03:22:11.176Z,101194.53
2022-09-04T03:26:36.276Z,101198.41
2022-09-04T03:30:39.711Z,101199.53
2022-09-04T03:34:47.948Z,101205.16
2022-09-04T03:39:28.550Z,101208.44
2022-09-04T03:43:52.623Z,101219.31
2022-09-04T03:48:22.882Z,101220.84
2022-09-04T03:52:58.719Z,101228.78
2022-09-04T03:57:32.242Z,101224.09
2022-09-04T04:01:42.095Z,101224.31
2022-09-04T04:05:49.729Z,101235.75
2022-09-04T04:10:19.832Z,101233.81
2022-09-04T04:14:38.426Z,101232.00
2022-09-04T04:19:10.987Z,101245.78
2022-09-04T04:23:18.022Z,101238.66
2022-09-04T04:27:58.343Z,101241.16
2022-09-04T04:32:14.458Z,101250.38
2022-09-04T04:36:31.503Z,101252.84
2022-09-04T04:41:10.227Z,101262.81
2022-09-04T04:45:52.893Z,101252.84
2022-09-04T04:50:10.403Z,101251.44
2022-09-04T04:54:45.853Z,101260.59
2022-09-04T04:59:09.468Z,101260.84
2022-09-04T05:03:25.108Z,101264.75
2022-09-04T05:07:42.515Z,101270.38
2022-09-04T05:12:16.829Z,101261.94
2022-09-04T05:16:56.545Z,101276.75
2022-09-04T05:21:13.245Z,101282.06
2022-09-04T05:25:31.663Z,101274.09
2022-09-04T05:29:36.852Z,101284.59
2022-09-04T05:33:43.282Z,101282.94
2022-09-04T05:37:55.884Z,101285.63
2022-09-04T05:42:11.806Z,101280.81
2022-09-04T05:46:38.583Z,101280.63
2022-09-04T05:50:40.698Z,101278.31
2022-09-04T05:54:50.017Z,101285.66
2022-09-04T05:59:26.287Z,101303.72
2022-09-04T06:03:44.433Z,101302.03
2022-09-04T06:07:53.773Z,101316.88
2022-09-04T06:12:29.216Z,101331.97
2022-09-04T06:17:03.542Z,101331.13
2022-09-04T06:21:30.772Z,101362.38
2022-09-04T06:26:06.538Z,101381.38
2022-09-04T06:30:11.518Z,101383.47
2022-09-04T06:34:38.098Z,101369.81
2022-09-04T06:39:00.287Z,101385.25
2022-09-04T06:43:35.414Z,101395.41
2022-09-04T06:48:17.198Z,101408.19
2022-09-04T06:52:25.628Z,101411.94
2022-09-04T06:56:51.006Z,101412.50
2022-09-04T07:01:26.430Z,101426.63
2022-09-04T07:06:02.289Z,101430.13
2022-09-04T07:10:49.643Z,101436.50
2022-09-04T07:15:23.557Z,101445.28
2022-09-04T07:19:28.833Z,101448.09
2022-09-04T07:23:39.677Z,101445.50
2022-09-04T07:28:19.269Z,101459.16
2022-09-04T07:32:41.334Z,101456.00
2022-09-04T07:36:58.219Z,101462.31
2022-09-04T07:41:30.450Z,101469.22
2022-09-04T07:45:40.222Z,101468.53
2022-09-04T07:50:01.101Z,101471.31
2022-09-04T07:54:42.085Z,101479.69
2022-09-04T07:59:03.671Z,101469.31
2022-09-04T08:03:36.863Z,101478.34
2022-09-04T08:08:19.206Z,101468.75
2022-09-04T08:12:45.061Z,101475.44
2022-09-04T08:16:48.038Z,101474.25
2022-09-04T08:21:15.107Z,101478.97
2022-09-04T08:25:46.017Z,101473.88
2022-09-04T08:29:53.885Z,101476.94
2022-09-04T08:34:24.102Z,101485.28
2022-09-04T08:38:56.618Z,101484.47
2022-09-04T08:43:05.854Z,101490.19
2022-09-04T08:47:37.093Z,101481.72
2022-09-04T08:51:45.753Z,101488.84
2022-09-04T08:56:18.797Z,101487.63
2022-09-04T09:00:23.747Z,101484.41
2022-09-04T09:05:03.481Z,101481.81
2022-09-04T09:09:28.016Z,101480.31
2022-09-04T09:13:47.919Z,101481.91
2022-09-04T09:17:58.886Z,101478.44
2022-09-04T09:22:06.590Z,101484.94
2022-09-04T09:26:29.577Z,101479.41
2022-09-04T09:31:06.267Z,101469.97
2022-09-04T09:35:09.058Z,101467.16
2022-09-04T09:39:34.416Z,101470.81
2022-09-04T09:44:24.366Z,101464.97
2022-09-04T09:48:44.927Z,101471.97
2022-09-04T09:53:01.199Z,101474.00
2022-09-04T09:57:03.426Z,101475.22
2022-09-04T10:01:24.827Z,101480.41
2022-09-04T10:05:45.050Z,101476.13
2022-09-04T10:10:00.234Z,101481.06
2022-09-04T10:14:17.045Z,101472.13
2022-09-04T10:19:02.840Z,101464.25
2022-09-04T10:23:23.171Z,101458.28
2022-09-04T10:27:43.232Z,101462.09
2022-09-04T10:32:10.885Z,101454.50
2022-09-04T10:36:31.117Z,101455.78
2022-09-04T10:40:43.731Z,101456.41
2022-09-04T10:45:21.346Z,101462.03
2022-09-04T10:49:38.630Z,101458.34
2022-09-04T10:53:40.646Z,101455.56
2022-09-04T10:58:09.030Z,101461.22
2022-09-04T11:02:39.676Z,101457.50
2022-09-04T11:06:58.910Z,101465.13
2022-09-04T11:11:16.597Z,101449.19
2022-09-04T11:15:52.721Z,101460.78
2022-09-04T11:20:21.867Z,101446.94
2022-09-04T11:24:49.945Z,101450.69
2022-09-04T11:29:00.926Z,101446.63
2022-09-04T11:33:37.255Z,101450.22
2022-09-04T11:38:00.423Z,101459.81
2022-09-04T11:42:27.747Z,101451.31
2022-09-04T11:46:51.674Z,101448.63
2022-09-04T11:51:10.484Z,101437.28
2022-09-04T11:55:34.128Z,101444.19
2022-09-04T11:59:51.327Z,101444.78
2022-09-04T12:03:53.325Z,101444.41
2022-09-04T12:08:21.884Z,101446.84
2022-09-04T12:12:42.647Z,101441.31
2022-09-04T12:17:03.416Z,101439.53
2022-09-04T12:21:41.447Z,101432.38
2022-09-04T12:26:01.215Z,101440.44
2022-09-04T12:30:26.431Z,101428.31
2022-09-04T12:34:50.243Z,101428.72
2022-09-04T12:39:10.742Z,101434.53
2022-09-04T12:43:42.363Z,101435.53
2022-09-04T12:48:10.505Z,101430.03
2022-09-04T12:52:39.804Z,101423.72
2022-09-04T12:57:26.998Z,101422.75
2022-09-04T13:01:50.718Z,101433.63
2022-09-04T13:06:11.635Z,101429.22
2022-09-04T13:10:33.184Z,101428.81
2022-09-04T13:14:45.541Z,101428.53
2022-09-04T13:19:17.457Z,101438.09
2022-09-04T13:23:57.470Z,101440.47
2022-09-04T13:28:19.303Z,101431.53
2022-09-04T13:32:47.383Z,101428.25
2022-09-04T13:37:04.602Z,101435.56
2022-09-04T13:41:36.875Z,101437.78
2022-09-04T13:45:50.828Z,101431.28
2022-09-04T13:50:10.270Z,101427.53
2022-09-04T13:54:21.967Z,101437.19
2022-09-04T13:58:39.219Z,101444.78
2022-09-04T14:02:42.011Z,101443.09
2022-09-04T14:06:45.175Z,101438.84
2022-09-04T14:11:21.263Z,101434.38
2022-09-04T14:16:03.193Z,101440.75
2022-09-04T14:24:45.948Z,101432.88
2022-09-04T14:28:54.139Z,101436.78
2022-09-04T14:33:06.026Z,101437.09
2022-09-04T14:37:13.887Z,101434.00
2022-09-04T14:41:48.679Z,101435.44
2022-09-04T14:46:10.755Z,101439.31
2022-09-04T14:50:17.112Z,101440.75
2022-09-04T14:54:33.366Z,101448.88
2022-09-04T14:58:41.839Z,101453.28
2022-09-04T15:02:43.928Z,101446.94
2022-09-04T15:07:12.199Z,101444.81
2022-09-04T15:11:34.844Z,101446.25
2022-09-04T15:15:46.734Z,101449.94
2022-09-04T15:19:55.847Z,101447.28
2022-09-04T15:24:03.861Z,101447.72
2022-09-04T15:28:19.568Z,101446.16
2022-09-04T15:32:25.007Z,101437.91
2022-09-04T15:36:27.727Z,101436.19
2022-09-04T15:40:37.797Z,101440.66
2022-09-04T15:44:45.225Z,101430.56
2022-09-04T15:49:04.166Z,101435.38
2022-09-04T15:53:27.031Z,101436.69
2022-09-04T15:58:05.007Z,101448.81
2022-09-04T16:02:37.041Z,101443.19
2022-09-04T16:06:42.311Z,101447.34
2022-09-04T16:11:01.685Z,101450.81
2022-09-04T16:15:11.040Z,101462.56
2022-09-04T16:19:44.596Z,101463.75
2022-09-04T16:23:47.185Z,101471.00
2022-09-04T16:28:12.876Z,101465.84
2022-09-04T16:32:26.316Z,101478.69
2022-09-04T16:36:46.024Z,101486.13
2022-09-04T16:41:15.565Z,101479.78
2022-09-04T16:45:26.238Z,101486.84
2022-09-04T16:49:39.565Z,101489.81
2022-09-04T16:53:51.834Z,101497.97
2022-09-04T16:58:16.823Z,101498.81
2022-09-04T17:02:36.270Z,101508.38
2022-09-04T17:07:03.068Z,101515.16
2022-09-04T17:11:22.486Z,101520.91
2022-09-04T17:15:30.396Z,101527.03
2022-09-04T17:19:33.462Z,101531.34
2022-09-04T17:29:17.722Z,101536.16
2022-09-04T17:29:22.443Z,101542.16
2022-09-04T17:38:49.244Z,101543.34
2022-09-04T17:40:50.142Z,101554.00
2022-09-04T17:42:10.667Z,101563.81
2022-09-04T17:46:13.798Z,101572.22
2022-09-04T17:50:20.020Z,101572.38
2022-09-04T17:54:27.280Z,101575.38
2022-09-04T17:58:35.614Z,101576.47
2022-09-04T18:02:53.729Z,101590.06
2022-09-04T18:07:57.761Z,101591.53
2022-09-04T18:11:37.163Z,101597.78
2022-09-04T18:16:07.651Z,101604.31
2022-09-04T18:20:38.447Z,101611.47
2022-09-04T18:24:53.816Z,101604.13
2022-09-04T18:30:28.816Z,101617.22
2022-09-04T18:37:23.394Z,101616.78
2022-09-04T18:38:42.280Z,101617.59
2022-09-04T18:50:28.223Z,101626.38
2022-09-04T18:50:52.243Z,101627.44
2022-09-04T18:51:58.691Z,101626.59
2022-09-04T18:56:20.577Z,101633.78
2022-09-04T19:00:30.388Z,101636.25
2022-09-04T19:04:43.118Z,101641.53
2022-09-04T19:08:50.515Z,101639.44
2022-09-04T19:12:54.380Z,101643.06
2022-09-04T19:17:22.285Z,101642.88
2022-09-04T19:21:36.357Z,101645.91
2022-09-04T19:25:45.688Z,101652.22
2022-09-04T19:30:18.339Z,101666.69
2022-09-04T19:34:41.415Z,101660.91
2022-09-04T19:45:57.246Z,101665.94
2022-09-04T19:46:00.356Z,101672.47
2022-09-04T19:48:00.915Z,101671.91
2022-09-04T19:53:34.344Z,101681.53
2022-09-04T19:57:31.401Z,101683.34
2022-09-04T20:01:23.945Z,101690.16
2022-09-04T20:05:34.796Z,101692.63
2022-09-04T20:09:45.518Z,101687.69
2022-09-04T20:13:57.476Z,101695.94
2022-09-04T20:18:10.165Z,101703.31
2022-09-04T20:22:36.288Z,101709.25
2022-09-04T20:26:47.521Z,101715.03
2022-09-04T20:31:35.244Z,101717.13
2022-09-04T20:35:47.026Z,101727.03
2022-09-04T20:40:05.862Z,101722.69
2022-09-04T20:44:31.125Z,101726.91
2022-09-04T20:52:44.869Z,101729.56
2022-09-04T20:53:55.704Z,101733.09
2022-09-04T21:03:13.511Z,101745.41
2022-09-04T21:03:17.495Z,101745.41
2022-09-04T21:07:25.188Z,101751.22
2022-09-04T21:12:02.459Z,101753.53
2022-09-04T21:16:34.993Z,101759.69
2022-09-04T21:21:03.268Z,101765.50
2022-09-04T21:25:22.845Z,101770.81
2022-09-04T21:29:37.005Z,101776.19
2022-09-04T21:34:03.780Z,101774.66
2022-09-04T21:38:19.019Z,101776.28
2022-09-04T21:42:46.848Z,101775.13
2022-09-04T21:46:55.223Z,101779.84
2022-09-04T21:51:34.527Z,101785.88
2022-09-04T21:59:04.646Z,101794.16
2022-09-04T22:02:49.398Z,101797.31
2022-09-04T22:04:47.534Z,101794.75
2022-09-04T22:13:33.048Z,101797.38
2022-09-04T22:13:57.411Z,101799.34
2022-09-04T22:18:13.788Z,101804.66
2022-09-04T22:22:38.001Z,101795.25
2022-09-04T22:26:56.124Z,101800.88
2022-09-04T22:31:20.134Z,101810.59
2022-09-04T22:35:53.229Z,101804.81
2022-09-04T22:40:13.950Z,101803.84
2022-09-04T22:44:34.239Z,101815.69
2022-09-04T22:49:12.218Z,101805.38
2022-09-04T22:53:27.255Z,101812.56
2022-09-04T22:57:51.247Z,101810.75
2022-09-04T23:02:46.047Z,101811.56
2022-09-04T23:12:05.064Z,101811.88
2022-09-04T23:13:58.174Z,101816.22
2022-09-04T23:16:26.278Z,101819.72
2022-09-04T23:26:33.208Z,101823.06
2022-09-04T23:26:46.995Z,101832.81
2022-09-04T23:29:55.801Z,101828.00
2022-09-04T23:34:27.934Z,101824.69
2022-09-04T23:39:24.467Z,101826.19
2022-09-04T23:44:15.969Z,101826.69
2022-09-04T23:49:06.947Z,101825.56
2022-09-04T23:53:58.750Z,101830.50
2022-09-04T23:58:52.247Z,101826.31
